sensor_id;sensor_type;location;lat;lon;timestamp;temperature;humidity
13164;DHT22;6647;53.688;10.746;2022-07-29T00:00:57;15.90;99.90
13164;DHT22;6647;53.688;10.746;2022-07-29T00:02:18;15.90;99.90
13164;DHT22;6647;53.688;10.746;2022-07-29T00:03:39;15.90;99.90
13164;DHT22;6647;53.688;10.746;2022-07-29T00:05:00;15.90;99.90
13164;DHT22;6647;53.688;10.746;2022-07-29T00:06:21;15.80;99.90
13164;DHT22;6647;53.688;10.746;2022-07-29T00:07:42;15.80;99.90
13164;DHT22;6647;53.688;10.746;2022-07-29T00:09:03;15.80;99.90
13164;DHT22;6647;53.688;10.746;2022-07-29T00:10:24;15.80;99.90
13164;DHT22;6647;53.688;10.746;2022-07-29T00:11:44;15.80;99.90
13164;DHT22;6647;53.688;10.746;2022-07-29T00:13:05;15.80;99.90
13164;DHT22;6647;53.688;10.746;2022-07-29T00:14:27;15.80;99.90
13164;DHT22;6647;53.688;10.746;2022-07-29T00:15:48;15.80;99.90
13164;DHT22;6647;53.688;10.746;2022-07-29T00:17:09;15.80;99.90
13164;DHT22;6647;53.688;10.746;2022-07-29T00:18:30;15.80;99.90
13164;DHT22;6647;53.688;10.746;2022-07-29T00:19:51;15.70;99.90
13164;DHT22;6647;53.688;10.746;2022-07-29T00:21:12;15.70;99.90
13164;DHT22;6647;53.688;10.746;2022-07-29T00:22:33;15.70;99.90
13164;DHT22;6647;53.688;10.746;2022-07-29T00:23:57;15.70;99.90
13164;DHT22;6647;53.688;10.746;2022-07-29T00:25:18;15.70;99.90
13164;DHT22;6647;53.688;10.746;2022-07-29T00:26:39;15.70;99.90
13164;DHT22;6647;53.688;10.746;2022-07-29T00:27:59;15.60;99.90
13164;DHT22;6647;53.688;10.746;2022-07-29T00:29:20;15.60;99.90
13164;DHT22;6647;53.688;10.746;2022-07-29T00:30:41;15.60;99.90
13164;DHT22;6647;53.688;10.746;2022-07-29T00:32:03;15.60;99.90
13164;DHT22;6647;53.688;10.746;2022-07-29T00:33:24;15.60;99.90
13164;DHT22;6647;53.688;10.746;2022-07-29T00:34:45;15.60;99.90
13164;DHT22;6647;53.688;10.746;2022-07-29T00:36:24;15.50;99.90
13164;DHT22;6647;53.688;10.746;2022-07-29T00:37:45;15.50;99.90
13164;DHT22;6647;53.688;10.746;2022-07-29T00:39:06;15.50;99.90
13164;DHT22;6647;53.688;10.746;2022-07-29T00:40:27;15.50;99.90
13164;DHT22;6647;53.688;10.746;2022-07-29T00:41:48;15.50;99.90
13164;DHT22;6647;53.688;10.746;2022-07-29T00:43:10;15.50;99.90
13164;DHT22;6647;53.688;10.746;2022-07-29T00:44:36;15.50;99.90
13164;DHT22;6647;53.688;10.746;2022-07-29T00:45:57;15.50;99.90
13164;DHT22;6647;53.688;10.746;2022-07-29T00:47:18;15.50;99.90
13164;DHT22;6647;53.688;10.746;2022-07-29T00:48:39;15.40;99.90
13164;DHT22;6647;53.688;10.746;2022-07-29T00:50:00;15.50;99.90
13164;DHT22;6647;53.688;10.746;2022-07-29T00:51:21;15.50;99.90
13164;DHT22;6647;53.688;10.746;2022-07-29T00:52:42;15.50;99.90
13164;DHT22;6647;53.688;10.746;2022-07-29T00:54:05;15.50;99.90
13164;DHT22;6647;53.688;10.746;2022-07-29T00:55:26;15.40;99.90
13164;DHT22;6647;53.688;10.746;2022-07-29T00:56:47;15.40;99.90
13164;DHT22;6647;53.688;10.746;2022-07-29T00:58:08;15.40;99.90
13164;DHT22;6647;53.688;10.746;2022-07-29T00:59:32;15.40;99.90
13164;DHT22;6647;53.688;10.746;2022-07-29T01:00:53;15.40;99.90
13164;DHT22;6647;53.688;10.746;2022-07-29T01:02:13;15.40;99.90
13164;DHT22;6647;53.688;10.746;2022-07-29T01:03:34;15.40;99.90
13164;DHT22;6647;53.688;10.746;2022-07-29T01:04:56;15.30;99.90
13164;DHT22;6647;53.688;10.746;2022-07-29T01:06:18;15.30;99.90
13164;DHT22;6647;53.688;10.746;2022-07-29T01:07:40;15.30;99.90
13164;DHT22;6647;53.688;10.746;2022-07-29T01:09:01;15.30;99.90
13164;DHT22;6647;53.688;10.746;2022-07-29T01:10:24;15.30;99.90
13164;DHT22;6647;53.688;10.746;2022-07-29T01:11:46;15.30;99.90
13164;DHT22;6647;53.688;10.746;2022-07-29T01:13:09;15.30;99.90
13164;DHT22;6647;53.688;10.746;2022-07-29T01:14:31;15.30;99.90
13164;DHT22;6647;53.688;10.746;2022-07-29T01:15:59;15.30;99.90
13164;DHT22;6647;53.688;10.746;2022-07-29T01:19:13;15.30;99.90
13164;DHT22;6647;53.688;10.746;2022-07-29T01:23:11;15.20;99.90
13164;DHT22;6647;53.688;10.746;2022-07-29T01:30:01;15.20;99.90
13164;DHT22;6647;53.688;10.746;2022-07-29T01:31:31;15.10;99.90
13164;DHT22;6647;53.688;10.746;2022-07-29T01:32:59;15.10;99.90
13164;DHT22;6647;53.688;10.746;2022-07-29T01:34:42;15.10;99.90
13164;DHT22;6647;53.688;10.746;2022-07-29T01:36:10;15.10;99.90
13164;DHT22;6647;53.688;10.746;2022-07-29T01:37:45;15.10;99.90
13164;DHT22;6647;53.688;10.746;2022-07-29T01:39:11;15.00;99.90
13164;DHT22;6647;53.688;10.746;2022-07-29T01:42:24;15.10;99.90
13164;DHT22;6647;53.688;10.746;2022-07-29T01:45:14;15.00;99.90
13164;DHT22;6647;53.688;10.746;2022-07-29T01:46:39;15.00;99.90
13164;DHT22;6647;53.688;10.746;2022-07-29T01:48:24;15.00;99.90
13164;DHT22;6647;53.688;10.746;2022-07-29T01:49:51;15.00;99.90
13164;DHT22;6647;53.688;10.746;2022-07-29T01:51:21;15.00;99.90
13164;DHT22;6647;53.688;10.746;2022-07-29T01:52:56;15.00;99.90
13164;DHT22;6647;53.688;10.746;2022-07-29T01:54:34;15.00;99.90
13164;DHT22;6647;53.688;10.746;2022-07-29T01:55:57;15.00;99.90
13164;DHT22;6647;53.688;10.746;2022-07-29T01:57:28;15.00;99.90
13164;DHT22;6647;53.688;10.746;2022-07-29T01:58:51;15.00;99.90
13164;DHT22;6647;53.688;10.746;2022-07-29T02:00:13;15.00;99.90
13164;DHT22;6647;53.688;10.746;2022-07-29T02:01:35;15.00;99.90
13164;DHT22;6647;53.688;10.746;2022-07-29T02:02:56;15.00;99.90
13164;DHT22;6647;53.688;10.746;2022-07-29T02:04:20;15.00;99.90
13164;DHT22;6647;53.688;10.746;2022-07-29T02:05:45;15.00;99.90
13164;DHT22;6647;53.688;10.746;2022-07-29T02:07:07;15.00;99.90
13164;DHT22;6647;53.688;10.746;2022-07-29T02:08:32;15.00;99.90
13164;DHT22;6647;53.688;10.746;2022-07-29T02:09:55;15.00;99.90
13164;DHT22;6647;53.688;10.746;2022-07-29T02:11:17;14.90;99.90
13164;DHT22;6647;53.688;10.746;2022-07-29T02:12:39;14.90;99.90
13164;DHT22;6647;53.688;10.746;2022-07-29T02:14:01;14.90;99.90
13164;DHT22;6647;53.688;10.746;2022-07-29T02:15:24;14.90;99.90
13164;DHT22;6647;53.688;10.746;2022-07-29T02:16:47;14.90;99.90
13164;DHT22;6647;53.688;10.746;2022-07-29T02:18:17;14.90;99.90
13164;DHT22;6647;53.688;10.746;2022-07-29T02:19:39;14.80;99.90
13164;DHT22;6647;53.688;10.746;2022-07-29T02:21:02;14.80;99.90
13164;DHT22;6647;53.688;10.746;2022-07-29T02:22:24;14.90;99.90
13164;DHT22;6647;53.688;10.746;2022-07-29T02:23:48;14.90;99.90
13164;DHT22;6647;53.688;10.746;2022-07-29T02:25:10;14.90;99.90
13164;DHT22;6647;53.688;10.746;2022-07-29T02:26:32;14.90;99.90
13164;DHT22;6647;53.688;10.746;2022-07-29T02:27:54;14.90;99.90
13164;DHT22;6647;53.688;10.746;2022-07-29T02:29:16;14.80;99.90
13164;DHT22;6647;53.688;10.746;2022-07-29T02:30:40;14.80;99.90
13164;DHT22;6647;53.688;10.746;2022-07-29T02:32:03;14.80;99.90
13164;DHT22;6647;53.688;10.746;2022-07-29T02:33:25;14.80;99.90
13164;DHT22;6647;53.688;10.746;2022-07-29T02:34:47;14.80;99.90
13164;DHT22;6647;53.688;10.746;2022-07-29T02:36:09;14.80;99.90
13164;DHT22;6647;53.688;10.746;2022-07-29T02:37:31;14.80;99.90
13164;DHT22;6647;53.688;10.746;2022-07-29T02:38:52;14.80;99.90
13164;DHT22;6647;53.688;10.746;2022-07-29T02:40:18;14.80;99.90
13164;DHT22;6647;53.688;10.746;2022-07-29T02:41:47;14.80;99.90
13164;DHT22;6647;53.688;10.746;2022-07-29T02:43:10;14.80;99.90
13164;DHT22;6647;53.688;10.746;2022-07-29T02:44:31;14.80;99.90
13164;DHT22;6647;53.688;10.746;2022-07-29T02:45:55;14.70;99.90
13164;DHT22;6647;53.688;10.746;2022-07-29T02:48:57;14.80;99.90
13164;DHT22;6647;53.688;10.746;2022-07-29T02:50:20;14.80;99.90
13164;DHT22;6647;53.688;10.746;2022-07-29T02:51:46;14.80;99.90
13164;DHT22;6647;53.688;10.746;2022-07-29T02:53:16;14.80;99.90
13164;DHT22;6647;53.688;10.746;2022-07-29T02:54:42;14.80;99.90
13164;DHT22;6647;53.688;10.746;2022-07-29T02:56:09;14.70;99.90
13164;DHT22;6647;53.688;10.746;2022-07-29T02:59:18;14.70;99.90
13164;DHT22;6647;53.688;10.746;2022-07-29T03:00:43;14.70;99.90
13164;DHT22;6647;53.688;10.746;2022-07-29T03:02:05;14.70;99.90
13164;DHT22;6647;53.688;10.746;2022-07-29T03:03:30;14.70;99.90
13164;DHT22;6647;53.688;10.746;2022-07-29T03:04:53;14.70;99.90
13164;DHT22;6647;53.688;10.746;2022-07-29T03:06:15;14.70;99.90
13164;DHT22;6647;53.688;10.746;2022-07-29T03:07:38;14.70;99.90
13164;DHT22;6647;53.688;10.746;2022-07-29T03:09:00;14.70;99.90
13164;DHT22;6647;53.688;10.746;2022-07-29T03:10:23;14.70;99.90
13164;DHT22;6647;53.688;10.746;2022-07-29T03:11:45;14.70;99.90
13164;DHT22;6647;53.688;10.746;2022-07-29T03:13:07;14.70;99.90
13164;DHT22;6647;53.688;10.746;2022-07-29T03:14:30;14.70;99.90
13164;DHT22;6647;53.688;10.746;2022-07-29T03:15:52;14.70;99.90
13164;DHT22;6647;53.688;10.746;2022-07-29T03:17:17;14.70;99.90
13164;DHT22;6647;53.688;10.746;2022-07-29T03:18:39;14.70;99.90
13164;DHT22;6647;53.688;10.746;2022-07-29T03:20:00;14.70;99.90
13164;DHT22;6647;53.688;10.746;2022-07-29T03:21:21;14.70;99.90
13164;DHT22;6647;53.688;10.746;2022-07-29T03:22:43;14.70;99.90
13164;DHT22;6647;53.688;10.746;2022-07-29T03:24:07;14.70;99.90
13164;DHT22;6647;53.688;10.746;2022-07-29T03:25:28;14.70;99.90
13164;DHT22;6647;53.688;10.746;2022-07-29T03:26:49;14.70;99.90
13164;DHT22;6647;53.688;10.746;2022-07-29T03:28:10;14.60;99.90
13164;DHT22;6647;53.688;10.746;2022-07-29T03:29:32;14.70;99.90
13164;DHT22;6647;53.688;10.746;2022-07-29T03:30:53;14.60;99.90
13164;DHT22;6647;53.688;10.746;2022-07-29T03:32:15;14.60;99.90
13164;DHT22;6647;53.688;10.746;2022-07-29T03:33:35;14.60;99.90
13164;DHT22;6647;53.688;10.746;2022-07-29T03:34:56;14.60;99.90
13164;DHT22;6647;53.688;10.746;2022-07-29T03:36:17;14.60;99.90
13164;DHT22;6647;53.688;10.746;2022-07-29T03:37:38;14.60;99.90
13164;DHT22;6647;53.688;10.746;2022-07-29T03:38:59;14.60;99.90
13164;DHT22;6647;53.688;10.746;2022-07-29T03:40:30;14.60;99.90
13164;DHT22;6647;53.688;10.746;2022-07-29T03:41:55;14.60;99.90
13164;DHT22;6647;53.688;10.746;2022-07-29T03:43:18;14.60;99.90
13164;DHT22;6647;53.688;10.746;2022-07-29T03:44:42;14.60;99.90
13164;DHT22;6647;53.688;10.746;2022-07-29T03:46:07;14.60;99.90
13164;DHT22;6647;53.688;10.746;2022-07-29T03:47:30;14.60;99.90
13164;DHT22;6647;53.688;10.746;2022-07-29T03:48:56;14.60;99.90
13164;DHT22;6647;53.688;10.746;2022-07-29T03:50:20;14.60;99.90
13164;DHT22;6647;53.688;10.746;2022-07-29T03:51:42;14.60;99.90
13164;DHT22;6647;53.688;10.746;2022-07-29T03:53:03;14.60;99.90
13164;DHT22;6647;53.688;10.746;2022-07-29T03:54:24;14.60;99.90
13164;DHT22;6647;53.688;10.746;2022-07-29T03:55:48;14.60;99.90
13164;DHT22;6647;53.688;10.746;2022-07-29T03:57:11;14.60;99.90
13164;DHT22;6647;53.688;10.746;2022-07-29T03:58:32;14.60;99.90
13164;DHT22;6647;53.688;10.746;2022-07-29T03:59:54;14.60;99.90
13164;DHT22;6647;53.688;10.746;2022-07-29T04:01:16;14.50;99.90
13164;DHT22;6647;53.688;10.746;2022-07-29T04:02:39;14.50;99.90
13164;DHT22;6647;53.688;10.746;2022-07-29T04:04:03;14.50;99.90
13164;DHT22;6647;53.688;10.746;2022-07-29T04:05:25;14.50;99.90
13164;DHT22;6647;53.688;10.746;2022-07-29T04:06:46;14.50;99.90
13164;DHT22;6647;53.688;10.746;2022-07-29T04:08:07;14.50;99.90
13164;DHT22;6647;53.688;10.746;2022-07-29T04:09:28;14.50;99.90
13164;DHT22;6647;53.688;10.746;2022-07-29T04:10:49;14.50;99.90
13164;DHT22;6647;53.688;10.746;2022-07-29T04:12:10;14.50;99.90
13164;DHT22;6647;53.688;10.746;2022-07-29T04:13:32;14.50;99.90
13164;DHT22;6647;53.688;10.746;2022-07-29T04:14:53;14.50;99.90
13164;DHT22;6647;53.688;10.746;2022-07-29T04:16:14;14.50;99.90
13164;DHT22;6647;53.688;10.746;2022-07-29T04:17:34;14.50;99.90
13164;DHT22;6647;53.688;10.746;2022-07-29T04:18:55;14.50;99.90
13164;DHT22;6647;53.688;10.746;2022-07-29T04:20:16;14.50;99.90
13164;DHT22;6647;53.688;10.746;2022-07-29T04:21:39;14.50;99.90
13164;DHT22;6647;53.688;10.746;2022-07-29T04:23:00;14.50;99.90
13164;DHT22;6647;53.688;10.746;2022-07-29T04:24:20;14.50;99.90
13164;DHT22;6647;53.688;10.746;2022-07-29T04:25:42;14.50;99.90
13164;DHT22;6647;53.688;10.746;2022-07-29T04:27:03;14.50;99.90
13164;DHT22;6647;53.688;10.746;2022-07-29T04:28:24;14.50;99.90
13164;DHT22;6647;53.688;10.746;2022-07-29T04:29:46;14.50;99.90
13164;DHT22;6647;53.688;10.746;2022-07-29T04:31:07;14.50;99.90
13164;DHT22;6647;53.688;10.746;2022-07-29T04:32:28;14.50;99.90
13164;DHT22;6647;53.688;10.746;2022-07-29T04:33:49;14.50;99.90
13164;DHT22;6647;53.688;10.746;2022-07-29T04:35:10;14.50;99.90
13164;DHT22;6647;53.688;10.746;2022-07-29T04:36:31;14.50;99.90
13164;DHT22;6647;53.688;10.746;2022-07-29T04:37:52;14.50;99.90
13164;DHT22;6647;53.688;10.746;2022-07-29T04:39:13;14.50;99.90
13164;DHT22;6647;53.688;10.746;2022-07-29T04:40:35;14.50;99.90
13164;DHT22;6647;53.688;10.746;2022-07-29T04:41:59;14.50;99.90
13164;DHT22;6647;53.688;10.746;2022-07-29T04:43:20;14.50;99.90
13164;DHT22;6647;53.688;10.746;2022-07-29T04:44:40;14.50;99.90
13164;DHT22;6647;53.688;10.746;2022-07-29T04:46:06;14.50;99.90
13164;DHT22;6647;53.688;10.746;2022-07-29T04:47:27;14.50;99.90
13164;DHT22;6647;53.688;10.746;2022-07-29T04:48:48;14.50;99.90
13164;DHT22;6647;53.688;10.746;2022-07-29T04:50:09;14.60;99.90
13164;DHT22;6647;53.688;10.746;2022-07-29T04:51:30;14.60;99.90
13164;DHT22;6647;53.688;10.746;2022-07-29T04:52:51;14.60;99.90
13164;DHT22;6647;53.688;10.746;2022-07-29T04:54:12;14.60;99.90
13164;DHT22;6647;53.688;10.746;2022-07-29T04:55:33;14.60;99.90
13164;DHT22;6647;53.688;10.746;2022-07-29T04:56:54;14.60;99.90
13164;DHT22;6647;53.688;10.746;2022-07-29T04:58:15;14.60;99.90
13164;DHT22;6647;53.688;10.746;2022-07-29T04:59:36;14.60;99.90
13164;DHT22;6647;53.688;10.746;2022-07-29T05:00:57;14.60;99.90
13164;DHT22;6647;53.688;10.746;2022-07-29T05:02:17;14.70;99.90
13164;DHT22;6647;53.688;10.746;2022-07-29T05:03:38;14.70;99.90
13164;DHT22;6647;53.688;10.746;2022-07-29T05:04:59;14.70;99.90
13164;DHT22;6647;53.688;10.746;2022-07-29T05:06:20;14.70;99.90
13164;DHT22;6647;53.688;10.746;2022-07-29T05:07:41;14.70;99.90
13164;DHT22;6647;53.688;10.746;2022-07-29T05:09:02;14.60;99.90
13164;DHT22;6647;53.688;10.746;2022-07-29T05:10:23;14.60;99.90
13164;DHT22;6647;53.688;10.746;2022-07-29T05:11:44;14.60;99.90
13164;DHT22;6647;53.688;10.746;2022-07-29T05:13:05;14.60;99.90
13164;DHT22;6647;53.688;10.746;2022-07-29T05:14:27;14.60;99.90
13164;DHT22;6647;53.688;10.746;2022-07-29T05:15:48;14.60;99.90
13164;DHT22;6647;53.688;10.746;2022-07-29T05:17:09;14.70;99.90
13164;DHT22;6647;53.688;10.746;2022-07-29T05:18:30;14.70;99.90
13164;DHT22;6647;53.688;10.746;2022-07-29T05:19:51;14.70;99.90
13164;DHT22;6647;53.688;10.746;2022-07-29T05:21:12;14.70;99.90
13164;DHT22;6647;53.688;10.746;2022-07-29T05:22:33;14.70;99.90
13164;DHT22;6647;53.688;10.746;2022-07-29T05:23:53;14.70;99.90
13164;DHT22;6647;53.688;10.746;2022-07-29T05:25:14;14.80;99.90
13164;DHT22;6647;53.688;10.746;2022-07-29T05:26:35;14.80;99.90
13164;DHT22;6647;53.688;10.746;2022-07-29T05:27:56;14.70;99.90
13164;DHT22;6647;53.688;10.746;2022-07-29T05:29:17;14.80;99.90
13164;DHT22;6647;53.688;10.746;2022-07-29T05:30:38;14.80;99.90
13164;DHT22;6647;53.688;10.746;2022-07-29T05:31:59;14.80;99.90
13164;DHT22;6647;53.688;10.746;2022-07-29T05:33:20;14.80;99.90
13164;DHT22;6647;53.688;10.746;2022-07-29T05:34:41;14.80;99.90
13164;DHT22;6647;53.688;10.746;2022-07-29T05:36:03;14.80;99.90
13164;DHT22;6647;53.688;10.746;2022-07-29T05:37:26;14.80;99.90
13164;DHT22;6647;53.688;10.746;2022-07-29T05:38:46;14.90;99.90
13164;DHT22;6647;53.688;10.746;2022-07-29T05:40:08;14.90;99.90
13164;DHT22;6647;53.688;10.746;2022-07-29T05:41:32;14.90;99.90
13164;DHT22;6647;53.688;10.746;2022-07-29T05:42:53;15.00;99.90
13164;DHT22;6647;53.688;10.746;2022-07-29T05:44:14;15.00;99.90
13164;DHT22;6647;53.688;10.746;2022-07-29T05:45:35;15.00;99.90
13164;DHT22;6647;53.688;10.746;2022-07-29T05:46:55;15.10;99.90
13164;DHT22;6647;53.688;10.746;2022-07-29T05:48:16;15.10;99.90
13164;DHT22;6647;53.688;10.746;2022-07-29T05:49:37;15.20;99.90
13164;DHT22;6647;53.688;10.746;2022-07-29T05:50:58;15.20;99.90
13164;DHT22;6647;53.688;10.746;2022-07-29T05:52:19;15.20;99.90
13164;DHT22;6647;53.688;10.746;2022-07-29T05:53:40;15.30;99.90
13164;DHT22;6647;53.688;10.746;2022-07-29T05:55:01;15.30;99.90
13164;DHT22;6647;53.688;10.746;2022-07-29T05:56:24;15.40;99.90
13164;DHT22;6647;53.688;10.746;2022-07-29T05:57:45;15.40;99.90
13164;DHT22;6647;53.688;10.746;2022-07-29T05:59:06;15.40;99.90
13164;DHT22;6647;53.688;10.746;2022-07-29T06:00:27;15.50;99.90
13164;DHT22;6647;53.688;10.746;2022-07-29T06:01:48;15.50;99.90
13164;DHT22;6647;53.688;10.746;2022-07-29T06:03:09;15.50;99.90
13164;DHT22;6647;53.688;10.746;2022-07-29T06:04:32;15.60;99.90
13164;DHT22;6647;53.688;10.746;2022-07-29T06:05:53;15.60;99.90
13164;DHT22;6647;53.688;10.746;2022-07-29T06:07:13;15.60;99.90
13164;DHT22;6647;53.688;10.746;2022-07-29T06:08:35;15.70;99.90
13164;DHT22;6647;53.688;10.746;2022-07-29T06:09:56;15.70;99.90
13164;DHT22;6647;53.688;10.746;2022-07-29T06:11:17;15.70;99.90
13164;DHT22;6647;53.688;10.746;2022-07-29T06:12:38;15.80;99.90
13164;DHT22;6647;53.688;10.746;2022-07-29T06:13:59;15.80;99.90
13164;DHT22;6647;53.688;10.746;2022-07-29T06:15:20;15.80;99.90
13164;DHT22;6647;53.688;10.746;2022-07-29T06:16:41;15.80;99.90
13164;DHT22;6647;53.688;10.746;2022-07-29T06:18:03;15.90;99.90
13164;DHT22;6647;53.688;10.746;2022-07-29T06:19:24;15.90;99.90
13164;DHT22;6647;53.688;10.746;2022-07-29T06:20:45;16.00;99.90
13164;DHT22;6647;53.688;10.746;2022-07-29T06:22:06;16.00;99.90
13164;DHT22;6647;53.688;10.746;2022-07-29T06:23:27;16.00;99.90
13164;DHT22;6647;53.688;10.746;2022-07-29T06:24:47;16.10;99.90
13164;DHT22;6647;53.688;10.746;2022-07-29T06:26:08;16.10;99.90
13164;DHT22;6647;53.688;10.746;2022-07-29T06:27:29;16.10;99.90
13164;DHT22;6647;53.688;10.746;2022-07-29T06:28:50;16.20;99.90
13164;DHT22;6647;53.688;10.746;2022-07-29T06:30:11;16.20;99.90
13164;DHT22;6647;53.688;10.746;2022-07-29T06:31:33;16.30;99.90
13164;DHT22;6647;53.688;10.746;2022-07-29T06:32:54;16.30;99.90
13164;DHT22;6647;53.688;10.746;2022-07-29T06:34:15;16.30;99.90
13164;DHT22;6647;53.688;10.746;2022-07-29T06:35:36;16.30;99.90
13164;DHT22;6647;53.688;10.746;2022-07-29T06:36:59;16.40;99.90
13164;DHT22;6647;53.688;10.746;2022-07-29T06:38:20;16.40;99.90
13164;DHT22;6647;53.688;10.746;2022-07-29T06:39:41;16.40;99.90
13164;DHT22;6647;53.688;10.746;2022-07-29T06:41:02;16.40;99.90
13164;DHT22;6647;53.688;10.746;2022-07-29T06:42:23;16.50;99.90
13164;DHT22;6647;53.688;10.746;2022-07-29T06:43:45;16.50;99.90
13164;DHT22;6647;53.688;10.746;2022-07-29T06:45:06;16.50;99.90
13164;DHT22;6647;53.688;10.746;2022-07-29T06:46:27;16.60;99.90
13164;DHT22;6647;53.688;10.746;2022-07-29T06:47:48;16.60;99.90
13164;DHT22;6647;53.688;10.746;2022-07-29T06:49:10;16.60;99.90
13164;DHT22;6647;53.688;10.746;2022-07-29T06:50:32;16.70;99.90
13164;DHT22;6647;53.688;10.746;2022-07-29T06:51:54;16.70;99.90
13164;DHT22;6647;53.688;10.746;2022-07-29T06:53:15;16.80;99.90
13164;DHT22;6647;53.688;10.746;2022-07-29T06:54:36;16.80;99.90
13164;DHT22;6647;53.688;10.746;2022-07-29T06:55:58;16.80;99.90
13164;DHT22;6647;53.688;10.746;2022-07-29T06:57:19;16.80;99.90
13164;DHT22;6647;53.688;10.746;2022-07-29T06:58:41;16.80;99.90
13164;DHT22;6647;53.688;10.746;2022-07-29T07:00:03;16.90;99.90
13164;DHT22;6647;53.688;10.746;2022-07-29T07:01:25;16.90;99.90
13164;DHT22;6647;53.688;10.746;2022-07-29T07:02:46;16.90;99.90
13164;DHT22;6647;53.688;10.746;2022-07-29T07:04:07;16.90;99.90
13164;DHT22;6647;53.688;10.746;2022-07-29T07:05:29;17.00;99.90
13164;DHT22;6647;53.688;10.746;2022-07-29T07:06:50;17.00;99.90
13164;DHT22;6647;53.688;10.746;2022-07-29T07:08:11;17.10;99.90
13164;DHT22;6647;53.688;10.746;2022-07-29T07:09:32;17.10;99.90
13164;DHT22;6647;53.688;10.746;2022-07-29T07:10:53;17.20;99.90
13164;DHT22;6647;53.688;10.746;2022-07-29T07:12:15;17.30;99.90
13164;DHT22;6647;53.688;10.746;2022-07-29T07:13:36;17.30;99.90
13164;DHT22;6647;53.688;10.746;2022-07-29T07:14:57;17.30;99.90
13164;DHT22;6647;53.688;10.746;2022-07-29T07:16:18;17.40;99.90
13164;DHT22;6647;53.688;10.746;2022-07-29T07:17:39;17.50;99.90
13164;DHT22;6647;53.688;10.746;2022-07-29T07:19:00;17.60;99.90
13164;DHT22;6647;53.688;10.746;2022-07-29T07:20:21;17.60;99.90
13164;DHT22;6647;53.688;10.746;2022-07-29T07:21:42;17.60;99.90
13164;DHT22;6647;53.688;10.746;2022-07-29T07:23:03;17.70;99.90
13164;DHT22;6647;53.688;10.746;2022-07-29T07:24:25;17.80;99.90
13164;DHT22;6647;53.688;10.746;2022-07-29T07:25:46;17.80;99.90
13164;DHT22;6647;53.688;10.746;2022-07-29T07:27:06;17.90;99.90
13164;DHT22;6647;53.688;10.746;2022-07-29T07:28:27;17.90;99.90
13164;DHT22;6647;53.688;10.746;2022-07-29T07:29:48;18.00;99.90
13164;DHT22;6647;53.688;10.746;2022-07-29T07:31:10;18.00;99.90
13164;DHT22;6647;53.688;10.746;2022-07-29T07:32:34;18.10;99.90
13164;DHT22;6647;53.688;10.746;2022-07-29T07:33:55;18.10;99.90
13164;DHT22;6647;53.688;10.746;2022-07-29T07:35:16;18.20;99.90
13164;DHT22;6647;53.688;10.746;2022-07-29T07:36:37;18.20;99.90
13164;DHT22;6647;53.688;10.746;2022-07-29T07:37:58;18.20;99.90
13164;DHT22;6647;53.688;10.746;2022-07-29T07:39:19;18.30;99.90
13164;DHT22;6647;53.688;10.746;2022-07-29T07:40:40;18.30;99.90
13164;DHT22;6647;53.688;10.746;2022-07-29T07:42:01;18.40;99.90
13164;DHT22;6647;53.688;10.746;2022-07-29T07:43:22;18.40;99.90
13164;DHT22;6647;53.688;10.746;2022-07-29T07:44:43;18.50;99.90
13164;DHT22;6647;53.688;10.746;2022-07-29T07:46:04;18.50;99.90
13164;DHT22;6647;53.688;10.746;2022-07-29T07:47:25;18.50;99.90
13164;DHT22;6647;53.688;10.746;2022-07-29T07:48:46;18.50;99.90
13164;DHT22;6647;53.688;10.746;2022-07-29T07:50:08;18.50;99.90
13164;DHT22;6647;53.688;10.746;2022-07-29T07:51:29;18.60;99.90
13164;DHT22;6647;53.688;10.746;2022-07-29T07:52:52;18.60;99.90
13164;DHT22;6647;53.688;10.746;2022-07-29T07:54:13;18.70;99.90
13164;DHT22;6647;53.688;10.746;2022-07-29T07:55:40;18.70;99.90
13164;DHT22;6647;53.688;10.746;2022-07-29T07:57:01;18.80;99.90
13164;DHT22;6647;53.688;10.746;2022-07-29T07:58:21;18.80;99.90
13164;DHT22;6647;53.688;10.746;2022-07-29T07:59:45;18.80;99.90
13164;DHT22;6647;53.688;10.746;2022-07-29T08:01:07;18.90;99.90
13164;DHT22;6647;53.688;10.746;2022-07-29T08:02:28;18.90;99.90
13164;DHT22;6647;53.688;10.746;2022-07-29T08:03:51;19.00;99.90
13164;DHT22;6647;53.688;10.746;2022-07-29T08:05:13;19.00;99.90
13164;DHT22;6647;53.688;10.746;2022-07-29T08:06:37;19.10;99.90
13164;DHT22;6647;53.688;10.746;2022-07-29T08:07:58;19.10;99.90
13164;DHT22;6647;53.688;10.746;2022-07-29T08:09:22;19.20;99.90
13164;DHT22;6647;53.688;10.746;2022-07-29T08:10:43;19.20;99.90
13164;DHT22;6647;53.688;10.746;2022-07-29T08:12:12;19.30;99.90
13164;DHT22;6647;53.688;10.746;2022-07-29T08:13:33;19.30;99.90
13164;DHT22;6647;53.688;10.746;2022-07-29T08:14:54;19.40;99.90
13164;DHT22;6647;53.688;10.746;2022-07-29T08:16:15;19.40;99.90
13164;DHT22;6647;53.688;10.746;2022-07-29T08:17:36;19.50;99.90
13164;DHT22;6647;53.688;10.746;2022-07-29T08:18:57;19.50;99.90
13164;DHT22;6647;53.688;10.746;2022-07-29T08:20:21;19.60;99.90
13164;DHT22;6647;53.688;10.746;2022-07-29T08:21:42;19.70;99.90
13164;DHT22;6647;53.688;10.746;2022-07-29T08:23:03;19.70;99.90
13164;DHT22;6647;53.688;10.746;2022-07-29T08:24:25;19.80;99.90
13164;DHT22;6647;53.688;10.746;2022-07-29T08:26:08;19.80;99.90
13164;DHT22;6647;53.688;10.746;2022-07-29T08:27:31;19.90;99.90
13164;DHT22;6647;53.688;10.746;2022-07-29T08:28:52;19.90;99.90
13164;DHT22;6647;53.688;10.746;2022-07-29T08:30:13;19.90;99.90
13164;DHT22;6647;53.688;10.746;2022-07-29T08:31:35;20.00;99.90
13164;DHT22;6647;53.688;10.746;2022-07-29T08:32:56;20.00;99.90
13164;DHT22;6647;53.688;10.746;2022-07-29T08:34:17;20.10;99.90
13164;DHT22;6647;53.688;10.746;2022-07-29T08:35:38;20.10;99.90
13164;DHT22;6647;53.688;10.746;2022-07-29T08:36:59;20.10;99.90
13164;DHT22;6647;53.688;10.746;2022-07-29T08:38:20;20.20;99.90
13164;DHT22;6647;53.688;10.746;2022-07-29T08:39:41;20.20;99.90
13164;DHT22;6647;53.688;10.746;2022-07-29T08:41:02;20.20;99.90
13164;DHT22;6647;53.688;10.746;2022-07-29T08:42:23;20.20;99.90
13164;DHT22;6647;53.688;10.746;2022-07-29T08:43:45;20.30;99.90
13164;DHT22;6647;53.688;10.746;2022-07-29T08:45:06;20.30;99.90
13164;DHT22;6647;53.688;10.746;2022-07-29T08:46:27;20.40;99.90
13164;DHT22;6647;53.688;10.746;2022-07-29T08:47:48;20.40;99.90
13164;DHT22;6647;53.688;10.746;2022-07-29T08:49:09;20.50;99.90
13164;DHT22;6647;53.688;10.746;2022-07-29T08:50:30;20.50;99.90
13164;DHT22;6647;53.688;10.746;2022-07-29T08:51:51;20.60;99.90
13164;DHT22;6647;53.688;10.746;2022-07-29T08:53:16;20.70;99.90
13164;DHT22;6647;53.688;10.746;2022-07-29T08:54:40;20.70;99.90
13164;DHT22;6647;53.688;10.746;2022-07-29T08:56:03;20.80;99.90